KOSU/OSU METAR and TAF weather

Enter ICAO airport designator
Station Type Date Time Source
KOSU METAR 2022/12/10 01:53 UTC NOAA

KOSU 100153Z 03007KT 7SM OVC027 06/03 A3013 RMK AO2 SLP208 T00610033


Station Type Date Time Source
KOSU Decoded METAR 2022/12/10 01:53 UTC NOAA

OHIO STATE UNIVERSITY AIRPORT , OH, United States (KOSU) 40-05N 083-05W 280M
Dec 09, 2022 - 08:53 PM EST / 2022.12.10 0153 UTC
Wind: from the NNE (030 degrees) at 8 MPH (7 KT):0
Visibility: 7 mile(s):0
Sky conditions: overcast
Temperature: 43.0 F (6.1 C)
Dew Point: 37.9 F (3.3 C)
Relative Humidity: 82%
Pressure (altimeter): 30.13 in. Hg (1020 hPa)
ob: KOSU 100153Z 03007KT 7SM OVC027 06/03 A3013 RMK AO2 SLP208 T00610033
cycle: 2

Station Type Date Time Source
KOSU TAF UTC NOAA

Error!

Example: see airport list